Hyderabad, India
Current Conditions -  °F | °C
As of 11:10 PM on Saturday 25 Oct 2014 (Local Time) from VOHS Reporting Station
Light Rain Light Rain  
Wind Chill: 64°   Ceiling: 1500
Heat Index: 64°   Visibility: 1.8mi
Dew Point: 59°   Wind: 6mph
Humidity: 83%   Direction: 30°NNE
Pressure: 30.03"   Gusts: NA
Location:  17.39°N, 78.49°E
Report Text: VOHS 251810Z 03005KT 3000 -RA SCT010 BKN015 OVC080 18/15 Q1017 NOSIG
Loading
Personal Weather Stations






























Interactive Weather Map
Tropical Storm Tracking
New forecast layout! Learn more

10-Day Weather Forecast

Advertisements
Track Severe Weather on mobile